sensor_id;sensor_type;location;lat;lon;timestamp;P1;durP1;ratioP1;P2;durP2;ratioP2
7316;SDS011;3699;51.462;6.696;2023-12-07T00:02:13;42.30;;;22.57;;
7316;SDS011;3699;51.462;6.696;2023-12-07T00:04:40;34.97;;;20.70;;
7316;SDS011;3699;51.462;6.696;2023-12-07T00:07:07;34.20;;;19.90;;
7316;SDS011;3699;51.462;6.696;2023-12-07T00:09:33;34.27;;;19.87;;
7316;SDS011;3699;51.462;6.696;2023-12-07T00:12:01;38.50;;;21.67;;
7316;SDS011;3699;51.462;6.696;2023-12-07T00:14:28;37.17;;;21.33;;
7316;SDS011;3699;51.462;6.696;2023-12-07T00:16:55;34.30;;;20.20;;
7316;SDS011;3699;51.462;6.696;2023-12-07T00:19:22;37.27;;;20.27;;
7316;SDS011;3699;51.462;6.696;2023-12-07T00:21:49;30.63;;;19.83;;
7316;SDS011;3699;51.462;6.696;2023-12-07T00:24:15;34.73;;;20.10;;
7316;SDS011;3699;51.462;6.696;2023-12-07T00:26:42;34.93;;;21.07;;
7316;SDS011;3699;51.462;6.696;2023-12-07T00:29:10;36.20;;;20.17;;
7316;SDS011;3699;51.462;6.696;2023-12-07T00:31:37;38.40;;;21.73;;
7316;SDS011;3699;51.462;6.696;2023-12-07T00:34:03;46.40;;;23.00;;
7316;SDS011;3699;51.462;6.696;2023-12-07T00:36:30;37.10;;;22.13;;
7316;SDS011;3699;51.462;6.696;2023-12-07T00:38:58;38.63;;;22.33;;
7316;SDS011;3699;51.462;6.696;2023-12-07T00:41:25;35.93;;;21.33;;
7316;SDS011;3699;51.462;6.696;2023-12-07T00:43:52;36.10;;;22.23;;
7316;SDS011;3699;51.462;6.696;2023-12-07T00:46:21;38.40;;;22.10;;
7316;SDS011;3699;51.462;6.696;2023-12-07T00:48:48;36.10;;;20.57;;
7316;SDS011;3699;51.462;6.696;2023-12-07T00:51:14;33.60;;;20.40;;
7316;SDS011;3699;51.462;6.696;2023-12-07T00:53:42;39.07;;;22.07;;
7316;SDS011;3699;51.462;6.696;2023-12-07T00:56:09;41.03;;;23.00;;
7316;SDS011;3699;51.462;6.696;2023-12-07T00:58:36;35.37;;;22.23;;
7316;SDS011;3699;51.462;6.696;2023-12-07T01:01:03;41.73;;;22.60;;
7316;SDS011;3699;51.462;6.696;2023-12-07T01:03:31;42.77;;;22.57;;
7316;SDS011;3699;51.462;6.696;2023-12-07T01:05:58;34.93;;;22.20;;
7316;SDS011;3699;51.462;6.696;2023-12-07T01:08:25;39.53;;;23.27;;
7316;SDS011;3699;51.462;6.696;2023-12-07T01:10:51;39.27;;;21.93;;
7316;SDS011;3699;51.462;6.696;2023-12-07T01:13:18;45.47;;;23.80;;
7316;SDS011;3699;51.462;6.696;2023-12-07T01:15:45;43.47;;;23.40;;
7316;SDS011;3699;51.462;6.696;2023-12-07T01:18:12;40.80;;;24.57;;
7316;SDS011;3699;51.462;6.696;2023-12-07T01:20:40;46.50;;;26.00;;
7316;SDS011;3699;51.462;6.696;2023-12-07T01:23:06;52.03;;;26.23;;
7316;SDS011;3699;51.462;6.696;2023-12-07T01:25:33;46.23;;;23.90;;
7316;SDS011;3699;51.462;6.696;2023-12-07T01:28:00;41.67;;;24.33;;
7316;SDS011;3699;51.462;6.696;2023-12-07T01:30:27;50.67;;;25.20;;
7316;SDS011;3699;51.462;6.696;2023-12-07T01:32:54;45.03;;;25.93;;
7316;SDS011;3699;51.462;6.696;2023-12-07T01:35:21;44.67;;;25.93;;
7316;SDS011;3699;51.462;6.696;2023-12-07T01:37:49;49.20;;;27.43;;
7316;SDS011;3699;51.462;6.696;2023-12-07T01:40:16;50.27;;;27.40;;
7316;SDS011;3699;51.462;6.696;2023-12-07T01:42:48;52.83;;;26.60;;
7316;SDS011;3699;51.462;6.696;2023-12-07T01:45:16;47.93;;;26.07;;
7316;SDS011;3699;51.462;6.696;2023-12-07T01:47:43;49.70;;;25.93;;
7316;SDS011;3699;51.462;6.696;2023-12-07T01:50:10;60.33;;;27.20;;
7316;SDS011;3699;51.462;6.696;2023-12-07T01:52:40;54.67;;;27.33;;
7316;SDS011;3699;51.462;6.696;2023-12-07T01:55:12;56.53;;;26.63;;
7316;SDS011;3699;51.462;6.696;2023-12-07T01:57:40;56.63;;;27.73;;
7316;SDS011;3699;51.462;6.696;2023-12-07T02:00:09;53.40;;;27.83;;
7316;SDS011;3699;51.462;6.696;2023-12-07T02:02:37;50.63;;;27.33;;
7316;SDS011;3699;51.462;6.696;2023-12-07T02:05:04;51.53;;;28.60;;
7316;SDS011;3699;51.462;6.696;2023-12-07T02:07:31;61.27;;;30.40;;
7316;SDS011;3699;51.462;6.696;2023-12-07T02:10:00;62.87;;;29.87;;
7316;SDS011;3699;51.462;6.696;2023-12-07T02:12:29;53.83;;;28.30;;
7316;SDS011;3699;51.462;6.696;2023-12-07T02:14:56;68.73;;;32.87;;
7316;SDS011;3699;51.462;6.696;2023-12-07T02:17:24;66.63;;;31.60;;
7316;SDS011;3699;51.462;6.696;2023-12-07T02:19:59;55.37;;;28.23;;
7316;SDS011;3699;51.462;6.696;2023-12-07T02:22:37;61.77;;;28.63;;
7316;SDS011;3699;51.462;6.696;2023-12-07T02:25:09;67.10;;;27.50;;
7316;SDS011;3699;51.462;6.696;2023-12-07T02:27:38;59.00;;;29.00;;
7316;SDS011;3699;51.462;6.696;2023-12-07T02:30:06;60.50;;;27.90;;
7316;SDS011;3699;51.462;6.696;2023-12-07T02:32:34;52.70;;;26.10;;
7316;SDS011;3699;51.462;6.696;2023-12-07T02:35:01;49.20;;;27.20;;
7316;SDS011;3699;51.462;6.696;2023-12-07T02:37:28;51.37;;;26.77;;
7316;SDS011;3699;51.462;6.696;2023-12-07T02:40:02;53.13;;;27.30;;
7316;SDS011;3699;51.462;6.696;2023-12-07T02:42:30;69.10;;;27.50;;
7316;SDS011;3699;51.462;6.696;2023-12-07T02:45:00;78.53;;;27.93;;
7316;SDS011;3699;51.462;6.696;2023-12-07T02:47:29;78.83;;;27.37;;
7316;SDS011;3699;51.462;6.696;2023-12-07T02:49:55;59.27;;;26.30;;
7316;SDS011;3699;51.462;6.696;2023-12-07T02:52:22;60.53;;;26.33;;
7316;SDS011;3699;51.462;6.696;2023-12-07T02:54:49;61.30;;;28.97;;
7316;SDS011;3699;51.462;6.696;2023-12-07T02:57:16;77.13;;;29.40;;
7316;SDS011;3699;51.462;6.696;2023-12-07T02:59:42;49.83;;;28.17;;
7316;SDS011;3699;51.462;6.696;2023-12-07T03:02:10;52.93;;;27.70;;
7316;SDS011;3699;51.462;6.696;2023-12-07T03:04:37;56.43;;;28.27;;
7316;SDS011;3699;51.462;6.696;2023-12-07T03:07:04;65.57;;;28.90;;
7316;SDS011;3699;51.462;6.696;2023-12-07T03:09:31;63.93;;;28.77;;
7316;SDS011;3699;51.462;6.696;2023-12-07T03:11:58;65.33;;;28.40;;
7316;SDS011;3699;51.462;6.696;2023-12-07T03:14:25;60.23;;;29.73;;
7316;SDS011;3699;51.462;6.696;2023-12-07T03:16:51;58.50;;;30.37;;
7316;SDS011;3699;51.462;6.696;2023-12-07T03:19:19;56.67;;;29.20;;
7316;SDS011;3699;51.462;6.696;2023-12-07T03:21:46;63.17;;;31.63;;
7316;SDS011;3699;51.462;6.696;2023-12-07T03:24:13;65.20;;;30.80;;
7316;SDS011;3699;51.462;6.696;2023-12-07T03:26:40;67.33;;;30.70;;
7316;SDS011;3699;51.462;6.696;2023-12-07T03:29:06;68.90;;;31.57;;
7316;SDS011;3699;51.462;6.696;2023-12-07T03:31:33;68.80;;;31.60;;
7316;SDS011;3699;51.462;6.696;2023-12-07T03:34:00;65.10;;;33.93;;
7316;SDS011;3699;51.462;6.696;2023-12-07T03:36:29;71.73;;;31.93;;
7316;SDS011;3699;51.462;6.696;2023-12-07T03:38:56;69.70;;;32.00;;
7316;SDS011;3699;51.462;6.696;2023-12-07T03:41:23;65.77;;;32.33;;
7316;SDS011;3699;51.462;6.696;2023-12-07T03:43:49;73.50;;;33.67;;
7316;SDS011;3699;51.462;6.696;2023-12-07T03:46:16;68.53;;;33.47;;
7316;SDS011;3699;51.462;6.696;2023-12-07T03:48:43;61.63;;;32.20;;
7316;SDS011;3699;51.462;6.696;2023-12-07T03:51:12;65.17;;;30.53;;
7316;SDS011;3699;51.462;6.696;2023-12-07T03:53:41;62.23;;;30.60;;
7316;SDS011;3699;51.462;6.696;2023-12-07T03:56:08;59.67;;;31.70;;
7316;SDS011;3699;51.462;6.696;2023-12-07T03:58:35;74.03;;;32.03;;
7316;SDS011;3699;51.462;6.696;2023-12-07T04:01:02;69.43;;;30.90;;
7316;SDS011;3699;51.462;6.696;2023-12-07T04:03:29;68.17;;;30.63;;
7316;SDS011;3699;51.462;6.696;2023-12-07T04:05:55;73.97;;;33.77;;
7316;SDS011;3699;51.462;6.696;2023-12-07T04:08:22;68.67;;;31.83;;
7316;SDS011;3699;51.462;6.696;2023-12-07T04:10:50;64.47;;;32.07;;
7316;SDS011;3699;51.462;6.696;2023-12-07T04:13:17;55.03;;;28.80;;
7316;SDS011;3699;51.462;6.696;2023-12-07T04:15:44;65.40;;;31.30;;
7316;SDS011;3699;51.462;6.696;2023-12-07T04:18:11;55.60;;;28.67;;
7316;SDS011;3699;51.462;6.696;2023-12-07T04:20:37;61.87;;;29.87;;
7316;SDS011;3699;51.462;6.696;2023-12-07T04:23:04;52.80;;;29.20;;
7316;SDS011;3699;51.462;6.696;2023-12-07T04:25:31;56.97;;;27.50;;
7316;SDS011;3699;51.462;6.696;2023-12-07T04:27:59;58.23;;;29.70;;
7316;SDS011;3699;51.462;6.696;2023-12-07T04:30:26;60.33;;;30.03;;
7316;SDS011;3699;51.462;6.696;2023-12-07T04:32:53;59.50;;;30.87;;
7316;SDS011;3699;51.462;6.696;2023-12-07T04:35:19;61.00;;;31.43;;
7316;SDS011;3699;51.462;6.696;2023-12-07T04:37:46;68.57;;;31.80;;
7316;SDS011;3699;51.462;6.696;2023-12-07T04:40:13;72.97;;;33.73;;
7316;SDS011;3699;51.462;6.696;2023-12-07T04:42:40;73.67;;;33.30;;
7316;SDS011;3699;51.462;6.696;2023-12-07T04:45:09;66.40;;;31.47;;
7316;SDS011;3699;51.462;6.696;2023-12-07T04:47:36;62.10;;;29.47;;
7316;SDS011;3699;51.462;6.696;2023-12-07T04:50:02;79.07;;;32.07;;
7316;SDS011;3699;51.462;6.696;2023-12-07T04:52:30;70.00;;;32.17;;
7316;SDS011;3699;51.462;6.696;2023-12-07T04:54:57;66.80;;;32.27;;
7316;SDS011;3699;51.462;6.696;2023-12-07T04:57:23;69.30;;;31.03;;
7316;SDS011;3699;51.462;6.696;2023-12-07T04:59:50;70.30;;;31.50;;
7316;SDS011;3699;51.462;6.696;2023-12-07T05:02:18;56.43;;;29.50;;
7316;SDS011;3699;51.462;6.696;2023-12-07T05:04:45;63.57;;;30.23;;
7316;SDS011;3699;51.462;6.696;2023-12-07T05:07:12;64.90;;;30.17;;
7316;SDS011;3699;51.462;6.696;2023-12-07T05:09:39;59.50;;;29.33;;
7316;SDS011;3699;51.462;6.696;2023-12-07T05:12:06;59.43;;;30.23;;
7316;SDS011;3699;51.462;6.696;2023-12-07T05:14:33;59.63;;;29.20;;
7316;SDS011;3699;51.462;6.696;2023-12-07T05:17:01;51.80;;;29.27;;
7316;SDS011;3699;51.462;6.696;2023-12-07T05:19:29;64.63;;;30.10;;
7316;SDS011;3699;51.462;6.696;2023-12-07T05:21:56;58.60;;;29.27;;
7316;SDS011;3699;51.462;6.696;2023-12-07T05:24:23;63.03;;;29.33;;
7316;SDS011;3699;51.462;6.696;2023-12-07T05:26:50;65.50;;;30.97;;
7316;SDS011;3699;51.462;6.696;2023-12-07T05:29:17;59.83;;;29.23;;
7316;SDS011;3699;51.462;6.696;2023-12-07T05:31:44;62.97;;;29.50;;
7316;SDS011;3699;51.462;6.696;2023-12-07T05:34:10;69.80;;;30.67;;
7316;SDS011;3699;51.462;6.696;2023-12-07T05:36:38;67.67;;;30.43;;
7316;SDS011;3699;51.462;6.696;2023-12-07T05:39:05;69.43;;;30.43;;
7316;SDS011;3699;51.462;6.696;2023-12-07T05:41:32;65.93;;;29.57;;
7316;SDS011;3699;51.462;6.696;2023-12-07T05:43:59;88.00;;;30.07;;
7316;SDS011;3699;51.462;6.696;2023-12-07T05:46:26;69.00;;;30.87;;
7316;SDS011;3699;51.462;6.696;2023-12-07T05:48:53;68.63;;;30.80;;
7316;SDS011;3699;51.462;6.696;2023-12-07T05:51:20;66.90;;;29.87;;
7316;SDS011;3699;51.462;6.696;2023-12-07T05:53:48;74.40;;;30.00;;
7316;SDS011;3699;51.462;6.696;2023-12-07T05:56:17;71.70;;;31.33;;
7316;SDS011;3699;51.462;6.696;2023-12-07T05:58:45;75.50;;;30.30;;
7316;SDS011;3699;51.462;6.696;2023-12-07T06:01:12;65.60;;;30.00;;
7316;SDS011;3699;51.462;6.696;2023-12-07T06:03:38;71.03;;;30.07;;
7316;SDS011;3699;51.462;6.696;2023-12-07T06:06:07;69.97;;;31.87;;
7316;SDS011;3699;51.462;6.696;2023-12-07T06:08:36;68.17;;;31.17;;
7316;SDS011;3699;51.462;6.696;2023-12-07T06:11:04;75.80;;;30.40;;
7316;SDS011;3699;51.462;6.696;2023-12-07T06:13:31;75.97;;;31.90;;
7316;SDS011;3699;51.462;6.696;2023-12-07T06:15:58;66.80;;;30.50;;
7316;SDS011;3699;51.462;6.696;2023-12-07T06:18:26;73.10;;;32.27;;
7316;SDS011;3699;51.462;6.696;2023-12-07T06:20:53;75.80;;;29.93;;
7316;SDS011;3699;51.462;6.696;2023-12-07T06:23:20;69.40;;;31.67;;
7316;SDS011;3699;51.462;6.696;2023-12-07T06:25:46;79.53;;;32.20;;
7316;SDS011;3699;51.462;6.696;2023-12-07T06:28:15;65.57;;;29.20;;
7316;SDS011;3699;51.462;6.696;2023-12-07T06:30:42;67.57;;;31.80;;
7316;SDS011;3699;51.462;6.696;2023-12-07T06:33:09;77.43;;;31.20;;
7316;SDS011;3699;51.462;6.696;2023-12-07T06:35:36;73.23;;;31.83;;
7316;SDS011;3699;51.462;6.696;2023-12-07T06:38:03;80.30;;;33.10;;
7316;SDS011;3699;51.462;6.696;2023-12-07T06:40:30;79.67;;;30.40;;
7316;SDS011;3699;51.462;6.696;2023-12-07T06:42:57;77.00;;;31.80;;
7316;SDS011;3699;51.462;6.696;2023-12-07T06:45:26;69.93;;;30.87;;
7316;SDS011;3699;51.462;6.696;2023-12-07T06:47:52;74.80;;;32.47;;
7316;SDS011;3699;51.462;6.696;2023-12-07T06:50:19;71.73;;;32.70;;
7316;SDS011;3699;51.462;6.696;2023-12-07T06:52:46;76.93;;;31.60;;
7316;SDS011;3699;51.462;6.696;2023-12-07T06:55:13;78.47;;;30.53;;
7316;SDS011;3699;51.462;6.696;2023-12-07T06:57:40;72.00;;;30.47;;
7316;SDS011;3699;51.462;6.696;2023-12-07T07:00:07;74.67;;;31.53;;
7316;SDS011;3699;51.462;6.696;2023-12-07T07:02:36;79.50;;;32.23;;
7316;SDS011;3699;51.462;6.696;2023-12-07T07:05:03;85.13;;;32.07;;
7316;SDS011;3699;51.462;6.696;2023-12-07T07:07:36;83.97;;;34.27;;
7316;SDS011;3699;51.462;6.696;2023-12-07T07:10:03;79.30;;;33.33;;
7316;SDS011;3699;51.462;6.696;2023-12-07T07:12:31;75.77;;;31.57;;
7316;SDS011;3699;51.462;6.696;2023-12-07T07:14:57;78.77;;;33.37;;
7316;SDS011;3699;51.462;6.696;2023-12-07T07:17:24;116.07;;;39.63;;
7316;SDS011;3699;51.462;6.696;2023-12-07T07:19:52;73.03;;;32.67;;
7316;SDS011;3699;51.462;6.696;2023-12-07T07:22:20;104.47;;;34.73;;
7316;SDS011;3699;51.462;6.696;2023-12-07T07:24:47;79.77;;;30.83;;
7316;SDS011;3699;51.462;6.696;2023-12-07T07:27:14;76.33;;;31.03;;
7316;SDS011;3699;51.462;6.696;2023-12-07T07:29:40;85.43;;;33.77;;
7316;SDS011;3699;51.462;6.696;2023-12-07T07:32:08;73.80;;;31.43;;
7316;SDS011;3699;51.462;6.696;2023-12-07T07:34:35;70.33;;;30.93;;
7316;SDS011;3699;51.462;6.696;2023-12-07T07:37:03;76.30;;;30.93;;
7316;SDS011;3699;51.462;6.696;2023-12-07T07:39:32;70.20;;;31.13;;
7316;SDS011;3699;51.462;6.696;2023-12-07T07:41:59;69.27;;;30.10;;
7316;SDS011;3699;51.462;6.696;2023-12-07T07:44:26;69.63;;;30.37;;
7316;SDS011;3699;51.462;6.696;2023-12-07T07:46:53;66.97;;;29.83;;
7316;SDS011;3699;51.462;6.696;2023-12-07T07:49:19;61.80;;;28.97;;
7316;SDS011;3699;51.462;6.696;2023-12-07T07:51:47;70.17;;;29.30;;
7316;SDS011;3699;51.462;6.696;2023-12-07T07:54:15;64.40;;;29.43;;
7316;SDS011;3699;51.462;6.696;2023-12-07T07:56:42;70.80;;;29.80;;
7316;SDS011;3699;51.462;6.696;2023-12-07T07:59:09;67.13;;;29.23;;
7316;SDS011;3699;51.462;6.696;2023-12-07T08:01:37;66.87;;;28.20;;
7316;SDS011;3699;51.462;6.696;2023-12-07T08:04:04;73.00;;;29.63;;
7316;SDS011;3699;51.462;6.696;2023-12-07T08:06:30;64.03;;;28.00;;
7316;SDS011;3699;51.462;6.696;2023-12-07T08:08:57;68.37;;;28.93;;
7316;SDS011;3699;51.462;6.696;2023-12-07T08:11:25;67.97;;;28.57;;
7316;SDS011;3699;51.462;6.696;2023-12-07T08:13:52;64.17;;;27.70;;
7316;SDS011;3699;51.462;6.696;2023-12-07T08:16:18;64.70;;;27.63;;
7316;SDS011;3699;51.462;6.696;2023-12-07T08:18:45;62.53;;;27.57;;
7316;SDS011;3699;51.462;6.696;2023-12-07T08:21:18;58.30;;;28.33;;
7316;SDS011;3699;51.462;6.696;2023-12-07T08:23:45;69.63;;;29.03;;
7316;SDS011;3699;51.462;6.696;2023-12-07T08:26:12;72.53;;;27.47;;
7316;SDS011;3699;51.462;6.696;2023-12-07T08:28:40;65.43;;;29.17;;
7316;SDS011;3699;51.462;6.696;2023-12-07T08:31:07;71.60;;;27.63;;
7316;SDS011;3699;51.462;6.696;2023-12-07T08:33:34;70.73;;;28.77;;
7316;SDS011;3699;51.462;6.696;2023-12-07T08:36:01;72.77;;;28.57;;
7316;SDS011;3699;51.462;6.696;2023-12-07T08:38:28;66.90;;;29.00;;
7316;SDS011;3699;51.462;6.696;2023-12-07T08:40:54;68.77;;;29.77;;
7316;SDS011;3699;51.462;6.696;2023-12-07T08:43:23;74.10;;;31.03;;
7316;SDS011;3699;51.462;6.696;2023-12-07T08:45:51;64.23;;;27.90;;
7316;SDS011;3699;51.462;6.696;2023-12-07T08:48:18;61.80;;;26.43;;
7316;SDS011;3699;51.462;6.696;2023-12-07T08:50:45;62.27;;;26.33;;
7316;SDS011;3699;51.462;6.696;2023-12-07T08:53:12;60.87;;;27.27;;
7316;SDS011;3699;51.462;6.696;2023-12-07T08:55:40;57.33;;;26.63;;
7316;SDS011;3699;51.462;6.696;2023-12-07T08:58:06;53.93;;;26.47;;
7316;SDS011;3699;51.462;6.696;2023-12-07T09:00:34;63.20;;;27.10;;
7316;SDS011;3699;51.462;6.696;2023-12-07T09:03:02;58.73;;;26.57;;
7316;SDS011;3699;51.462;6.696;2023-12-07T09:05:29;58.17;;;26.60;;
7316;SDS011;3699;51.462;6.696;2023-12-07T09:07:56;57.90;;;25.80;;
7316;SDS011;3699;51.462;6.696;2023-12-07T09:10:23;53.40;;;24.17;;
7316;SDS011;3699;51.462;6.696;2023-12-07T09:12:49;47.20;;;23.93;;
7316;SDS011;3699;51.462;6.696;2023-12-07T09:15:16;44.67;;;23.63;;
7316;SDS011;3699;51.462;6.696;2023-12-07T09:17:43;49.87;;;23.47;;
7316;SDS011;3699;51.462;6.696;2023-12-07T09:20:11;46.90;;;23.80;;
7316;SDS011;3699;51.462;6.696;2023-12-07T09:22:38;43.20;;;22.20;;
7316;SDS011;3699;51.462;6.696;2023-12-07T09:25:06;52.07;;;24.80;;
7316;SDS011;3699;51.462;6.696;2023-12-07T09:27:33;50.23;;;26.33;;
7316;SDS011;3699;51.462;6.696;2023-12-07T09:30:02;61.67;;;37.10;;
7316;SDS011;3699;51.462;6.696;2023-12-07T09:32:30;61.13;;;24.87;;
7316;SDS011;3699;51.462;6.696;2023-12-07T09:34:57;50.57;;;24.80;;
7316;SDS011;3699;51.462;6.696;2023-12-07T09:37:25;48.97;;;24.00;;
7316;SDS011;3699;51.462;6.696;2023-12-07T09:39:51;51.13;;;24.67;;
7316;SDS011;3699;51.462;6.696;2023-12-07T09:42:18;46.90;;;23.23;;
7316;SDS011;3699;51.462;6.696;2023-12-07T09:44:45;49.77;;;25.03;;
7316;SDS011;3699;51.462;6.696;2023-12-07T09:47:11;51.10;;;24.40;;
7316;SDS011;3699;51.462;6.696;2023-12-07T09:49:39;44.30;;;23.77;;
7316;SDS011;3699;51.462;6.696;2023-12-07T09:52:06;38.13;;;20.33;;
7316;SDS011;3699;51.462;6.696;2023-12-07T09:54:35;34.53;;;18.73;;
7316;SDS011;3699;51.462;6.696;2023-12-07T09:57:06;35.57;;;19.90;;
7316;SDS011;3699;51.462;6.696;2023-12-07T09:59:34;31.07;;;19.33;;
7316;SDS011;3699;51.462;6.696;2023-12-07T10:02:01;43.33;;;24.97;;
7316;SDS011;3699;51.462;6.696;2023-12-07T10:04:28;128.37;;;29.07;;
7316;SDS011;3699;51.462;6.696;2023-12-07T10:06:56;94.80;;;50.77;;
7316;SDS011;3699;51.462;6.696;2023-12-07T10:09:22;57.47;;;33.10;;
7316;SDS011;3699;51.462;6.696;2023-12-07T10:11:50;51.40;;;25.50;;
7316;SDS011;3699;51.462;6.696;2023-12-07T10:14:28;38.27;;;22.23;;
7316;SDS011;3699;51.462;6.696;2023-12-07T10:16:55;44.73;;;25.77;;
7316;SDS011;3699;51.462;6.696;2023-12-07T10:19:22;36.07;;;20.57;;
7316;SDS011;3699;51.462;6.696;2023-12-07T10:21:50;63.07;;;31.70;;
7316;SDS011;3699;51.462;6.696;2023-12-07T10:24:18;33.07;;;20.10;;
7316;SDS011;3699;51.462;6.696;2023-12-07T10:26:47;89.87;;;44.90;;
7316;SDS011;3699;51.462;6.696;2023-12-07T10:29:16;90.97;;;49.30;;
7316;SDS011;3699;51.462;6.696;2023-12-07T10:31:43;35.77;;;23.33;;
7316;SDS011;3699;51.462;6.696;2023-12-07T10:34:11;48.07;;;29.43;;
7316;SDS011;3699;51.462;6.696;2023-12-07T10:36:38;33.27;;;19.13;;
7316;SDS011;3699;51.462;6.696;2023-12-07T10:39:05;32.37;;;19.60;;
7316;SDS011;3699;51.462;6.696;2023-12-07T10:41:33;34.27;;;19.13;;
7316;SDS011;3699;51.462;6.696;2023-12-07T10:44:04;30.67;;;18.50;;
7316;SDS011;3699;51.462;6.696;2023-12-07T10:46:34;43.17;;;24.93;;
7316;SDS011;3699;51.462;6.696;2023-12-07T10:49:02;55.83;;;30.63;;
7316;SDS011;3699;51.462;6.696;2023-12-07T10:51:31;56.67;;;29.77;;
7316;SDS011;3699;51.462;6.696;2023-12-07T10:54:04;151.67;;;82.07;;
7316;SDS011;3699;51.462;6.696;2023-12-07T10:56:35;232.37;;;131.33;;
7316;SDS011;3699;51.462;6.696;2023-12-07T10:59:06;58.37;;;33.43;;
7316;SDS011;3699;51.462;6.696;2023-12-07T11:01:37;53.67;;;32.10;;
7316;SDS011;3699;51.462;6.696;2023-12-07T11:04:05;39.13;;;23.67;;
7316;SDS011;3699;51.462;6.696;2023-12-07T11:06:33;33.90;;;20.53;;
7316;SDS011;3699;51.462;6.696;2023-12-07T11:09:01;36.83;;;23.30;;
7316;SDS011;3699;51.462;6.696;2023-12-07T11:11:31;39.80;;;24.97;;
7316;SDS011;3699;51.462;6.696;2023-12-07T11:14:05;66.30;;;44.67;;
7316;SDS011;3699;51.462;6.696;2023-12-07T11:16:34;53.07;;;34.37;;
7316;SDS011;3699;51.462;6.696;2023-12-07T11:19:03;28.00;;;18.07;;
7316;SDS011;3699;51.462;6.696;2023-12-07T11:21:30;33.33;;;19.40;;
7316;SDS011;3699;51.462;6.696;2023-12-07T11:23:59;22.33;;;13.50;;
7316;SDS011;3699;51.462;6.696;2023-12-07T11:26:26;21.93;;;13.10;;
7316;SDS011;3699;51.462;6.696;2023-12-07T11:28:54;45.83;;;30.03;;
7316;SDS011;3699;51.462;6.696;2023-12-07T11:31:21;22.50;;;13.37;;
7316;SDS011;3699;51.462;6.696;2023-12-07T11:33:49;26.17;;;17.20;;
7316;SDS011;3699;51.462;6.696;2023-12-07T11:36:16;24.37;;;13.07;;
7316;SDS011;3699;51.462;6.696;2023-12-07T11:41:44;27.83;;;18.37;;
7316;SDS011;3699;51.462;6.696;2023-12-07T11:44:17;31.27;;;20.13;;
7316;SDS011;3699;51.462;6.696;2023-12-07T11:46:43;36.10;;;22.00;;
7316;SDS011;3699;51.462;6.696;2023-12-07T11:49:12;264.13;;;124.97;;
7316;SDS011;3699;51.462;6.696;2023-12-07T11:51:39;190.57;;;98.67;;
7316;SDS011;3699;51.462;6.696;2023-12-07T11:54:05;184.70;;;98.87;;
7316;SDS011;3699;51.462;6.696;2023-12-07T11:56:35;58.80;;;33.63;;
7316;SDS011;3699;51.462;6.696;2023-12-07T11:59:02;77.67;;;42.83;;
7316;SDS011;3699;51.462;6.696;2023-12-07T12:01:29;81.77;;;49.73;;
7316;SDS011;3699;51.462;6.696;2023-12-07T12:03:56;135.67;;;83.90;;
7316;SDS011;3699;51.462;6.696;2023-12-07T12:06:24;44.37;;;26.33;;
7316;SDS011;3699;51.462;6.696;2023-12-07T12:08:52;49.77;;;31.63;;
7316;SDS011;3699;51.462;6.696;2023-12-07T12:11:19;58.70;;;41.10;;
7316;SDS011;3699;51.462;6.696;2023-12-07T12:13:46;136.73;;;99.27;;
7316;SDS011;3699;51.462;6.696;2023-12-07T12:16:14;57.00;;;40.97;;
7316;SDS011;3699;51.462;6.696;2023-12-07T12:18:41;27.87;;;18.43;;
7316;SDS011;3699;51.462;6.696;2023-12-07T12:21:08;30.53;;;20.43;;
7316;SDS011;3699;51.462;6.696;2023-12-07T12:23:36;22.60;;;14.40;;
7316;SDS011;3699;51.462;6.696;2023-12-07T12:26:05;28.53;;;19.67;;
7316;SDS011;3699;51.462;6.696;2023-12-07T12:28:33;24.23;;;13.63;;
7316;SDS011;3699;51.462;6.696;2023-12-07T12:31:03;21.73;;;13.80;;
7316;SDS011;3699;51.462;6.696;2023-12-07T12:33:30;23.27;;;14.13;;
7316;SDS011;3699;51.462;6.696;2023-12-07T12:36:03;24.93;;;15.80;;
7316;SDS011;3699;51.462;6.696;2023-12-07T12:38:32;26.83;;;17.10;;
7316;SDS011;3699;51.462;6.696;2023-12-07T12:41:01;24.63;;;13.73;;
7316;SDS011;3699;51.462;6.696;2023-12-07T12:43:28;23.13;;;15.70;;
7316;SDS011;3699;51.462;6.696;2023-12-07T12:45:56;22.87;;;13.00;;
7316;SDS011;3699;51.462;6.696;2023-12-07T12:48:23;20.17;;;12.60;;
7316;SDS011;3699;51.462;6.696;2023-12-07T12:50:51;19.67;;;12.47;;
7316;SDS011;3699;51.462;6.696;2023-12-07T12:53:18;28.33;;;13.87;;
7316;SDS011;3699;51.462;6.696;2023-12-07T12:55:47;21.10;;;12.90;;
7316;SDS011;3699;51.462;6.696;2023-12-07T12:58:15;24.00;;;13.00;;
7316;SDS011;3699;51.462;6.696;2023-12-07T13:00:42;20.90;;;12.67;;
7316;SDS011;3699;51.462;6.696;2023-12-07T13:03:09;20.87;;;12.70;;
7316;SDS011;3699;51.462;6.696;2023-12-07T13:05:38;23.33;;;12.80;;
7316;SDS011;3699;51.462;6.696;2023-12-07T13:08:04;19.50;;;11.40;;
7316;SDS011;3699;51.462;6.696;2023-12-07T13:10:31;19.77;;;13.20;;
7316;SDS011;3699;51.462;6.696;2023-12-07T13:12:59;19.87;;;12.53;;
7316;SDS011;3699;51.462;6.696;2023-12-07T13:15:29;22.07;;;12.23;;
7316;SDS011;3699;51.462;6.696;2023-12-07T13:17:56;18.83;;;12.40;;
7316;SDS011;3699;51.462;6.696;2023-12-07T13:20:23;20.30;;;11.73;;
7316;SDS011;3699;51.462;6.696;2023-12-07T13:22:49;17.57;;;10.50;;
7316;SDS011;3699;51.462;6.696;2023-12-07T13:25:16;18.70;;;11.53;;
7316;SDS011;3699;51.462;6.696;2023-12-07T13:27:43;24.93;;;12.77;;
7316;SDS011;3699;51.462;6.696;2023-12-07T13:30:10;26.13;;;11.67;;
7316;SDS011;3699;51.462;6.696;2023-12-07T13:32:38;23.43;;;12.23;;
7316;SDS011;3699;51.462;6.696;2023-12-07T13:35:05;17.87;;;11.03;;
7316;SDS011;3699;51.462;6.696;2023-12-07T13:37:33;24.53;;;12.80;;
7316;SDS011;3699;51.462;6.696;2023-12-07T13:40:01;20.13;;;11.77;;
7316;SDS011;3699;51.462;6.696;2023-12-07T13:42:30;19.07;;;11.83;;
7316;SDS011;3699;51.462;6.696;2023-12-07T13:44:57;21.13;;;12.60;;
7316;SDS011;3699;51.462;6.696;2023-12-07T13:47:25;20.50;;;13.53;;
7316;SDS011;3699;51.462;6.696;2023-12-07T13:49:57;20.30;;;13.03;;
7316;SDS011;3699;51.462;6.696;2023-12-07T13:52:25;23.63;;;10.53;;
7316;SDS011;3699;51.462;6.696;2023-12-07T13:54:53;16.53;;;11.07;;
7316;SDS011;3699;51.462;6.696;2023-12-07T13:57:20;20.70;;;12.13;;
7316;SDS011;3699;51.462;6.696;2023-12-07T13:59:49;18.50;;;11.27;;
7316;SDS011;3699;51.462;6.696;2023-12-07T14:02:16;21.30;;;12.57;;
7316;SDS011;3699;51.462;6.696;2023-12-07T14:04:43;20.80;;;14.50;;
7316;SDS011;3699;51.462;6.696;2023-12-07T14:07:11;19.70;;;13.03;;
7316;SDS011;3699;51.462;6.696;2023-12-07T14:09:40;23.03;;;14.13;;
7316;SDS011;3699;51.462;6.696;2023-12-07T14:12:08;25.47;;;15.97;;
7316;SDS011;3699;51.462;6.696;2023-12-07T14:14:36;20.20;;;11.07;;
7316;SDS011;3699;51.462;6.696;2023-12-07T14:17:02;16.97;;;10.03;;
7316;SDS011;3699;51.462;6.696;2023-12-07T14:19:29;19.93;;;10.70;;
7316;SDS011;3699;51.462;6.696;2023-12-07T14:21:56;19.57;;;9.97;;
7316;SDS011;3699;51.462;6.696;2023-12-07T14:24:24;19.47;;;12.67;;
7316;SDS011;3699;51.462;6.696;2023-12-07T14:26:51;22.07;;;11.83;;
7316;SDS011;3699;51.462;6.696;2023-12-07T14:29:18;19.20;;;10.90;;
7316;SDS011;3699;51.462;6.696;2023-12-07T14:31:46;17.90;;;10.60;;
7316;SDS011;3699;51.462;6.696;2023-12-07T14:34:14;21.63;;;11.37;;
7316;SDS011;3699;51.462;6.696;2023-12-07T14:36:41;19.57;;;12.20;;
7316;SDS011;3699;51.462;6.696;2023-12-07T14:39:09;16.03;;;10.37;;
7316;SDS011;3699;51.462;6.696;2023-12-07T14:41:43;17.50;;;11.20;;
7316;SDS011;3699;51.462;6.696;2023-12-07T14:44:11;17.20;;;9.97;;
7316;SDS011;3699;51.462;6.696;2023-12-07T14:46:38;20.23;;;10.07;;
7316;SDS011;3699;51.462;6.696;2023-12-07T14:49:06;21.33;;;12.07;;
7316;SDS011;3699;51.462;6.696;2023-12-07T14:51:33;18.20;;;10.23;;
7316;SDS011;3699;51.462;6.696;2023-12-07T14:54:00;16.77;;;10.20;;